Time;durP1;ratioP1;P1;durP2;ratioP2;P2;SDS_P1;SDS_P2;PMS_P1;PMS_P2;Temp;Humidity;BMP_temperature;BMP_pressure;BME280_temperature;BME280_humidity;BME280_pressure;Samples;Min_cycle;Max_cycle;Signal;HPM_P1;HPM_P2
2021/04/04 00:01:06;;;;;;;4.00;1.50;;;11.60;56.60;;;;;;5096024;28;20048;-88
2021/04/04 00:03:35;;;;;;;3.83;1.70;;;11.60;56.60;;;;;;5096354;28;20495;-88
2021/04/04 00:06:00;;;;;;;2.97;1.52;;;11.60;56.60;;;;;;5095875;28;20138;-88
2021/04/04 00:08:26;;;;;;;3.45;1.42;;;11.60;56.60;;;;;;5095615;28;20031;-88
2021/04/04 00:10:53;;;;;;;3.10;1.77;;;11.60;56.60;;;;;;5095261;28;20559;-88
2021/04/04 00:13:19;;;;;;;3.97;1.80;;;11.50;56.60;;;;;;5104836;28;20032;-88
2021/04/04 00:15:45;;;;;;;2.88;1.48;;;11.50;56.70;;;;;;5096188;28;20478;-88
2021/04/04 00:18:11;;;;;;;3.65;1.48;;;11.50;56.70;;;;;;5115168;28;20024;-88
2021/04/04 00:20:37;;;;;;;4.20;1.73;;;11.50;56.70;;;;;;5115872;28;20479;-88
2021/04/04 00:23:03;;;;;;;4.30;1.90;;;11.50;56.70;;;;;;5106346;28;20038;-88
2021/04/04 00:25:29;;;;;;;2.85;1.73;;;11.40;56.70;;;;;;5090723;28;20019;-89
2021/04/04 00:27:55;;;;;;;3.60;1.48;;;11.50;56.80;;;;;;5113362;28;20098;-88
2021/04/04 00:30:22;;;;;;;3.92;1.70;;;11.40;56.80;;;;;;5095997;28;20059;-88
2021/04/04 00:32:48;;;;;;;3.80;1.70;;;11.40;56.80;;;;;;5100049;28;20043;-87
2021/04/04 00:35:17;;;;;;;2.78;1.50;;;11.40;56.80;;;;;;5117051;27;20164;-88
2021/04/04 00:37:44;;;;;;;2.67;1.42;;;11.40;56.90;;;;;;5092168;28;20069;-88
2021/04/04 00:40:19;;;;;;;3.25;1.45;;;11.40;56.90;;;;;;5102075;28;20427;-88
2021/04/04 00:42:45;;;;;;;6.65;1.85;;;11.40;57.00;;;;;;5099492;28;20020;-88
2021/04/04 00:45:14;;;;;;;4.10;1.73;;;11.30;56.90;;;;;;5099933;28;20156;-88
2021/04/04 00:47:40;;;;;;;2.92;1.80;;;11.30;57.00;;;;;;5127928;27;20020;-88
2021/04/04 00:50:07;;;;;;;4.70;1.60;;;11.30;57.00;;;;;;5116705;28;20024;-87
2021/04/04 00:52:34;;;;;;;3.40;1.58;;;11.30;57.10;;;;;;5099782;28;20031;-88
2021/04/04 00:55:00;;;;;;;4.20;1.80;;;11.30;57.10;;;;;;5116101;28;20026;-87
2021/04/04 00:57:26;;;;;;;2.78;1.67;;;11.20;57.10;;;;;;5117030;27;20115;-88
2021/04/04 00:59:53;;;;;;;2.83;1.55;;;11.20;57.10;;;;;;5099520;28;20119;-88
2021/04/04 01:02:19;;;;;;;3.47;1.48;;;11.20;57.10;;;;;;5117785;27;20403;-88
2021/04/04 01:04:48;;;;;;;2.63;1.52;;;11.20;57.10;;;;;;5102652;28;20034;-88
2021/04/04 01:07:14;;;;;;;2.03;1.30;;;11.20;57.20;;;;;;5099938;28;20074;-87
2021/04/04 01:09:40;;;;;;;3.05;1.67;;;11.20;57.20;;;;;;5082243;28;20059;-88
2021/04/04 01:12:38;;;;;;;3.08;1.48;;;11.20;57.20;;;;;;5085676;28;20127;-87
2021/04/04 01:15:13;;;;;;;3.55;1.45;;;11.20;57.30;;;;;;5107509;28;20070;-88
2021/04/04 01:17:41;;;;;;;2.75;1.50;;;11.10;57.20;;;;;;5131386;27;20460;-89
2021/04/04 01:20:18;;;;;;;2.83;1.38;;;11.10;57.30;;;;;;5116450;27;20106;-88
2021/04/04 01:22:58;;;;;;;2.20;1.50;;;11.10;57.40;;;;;;5103105;27;20023;-88
2021/04/04 01:25:46;;;;;;;3.47;1.40;;;11.10;57.40;;;;;;5099366;28;20035;-88
2021/04/04 01:28:16;;;;;;;1.98;1.40;;;11.10;57.50;;;;;;5115098;27;20524;-88
2021/04/04 01:30:45;;;;;;;4.25;1.65;;;11.10;57.40;;;;;;5115620;28;20054;-87
2021/04/04 01:33:14;;;;;;;2.92;1.50;;;11.10;57.40;;;;;;5115688;28;20016;-88
2021/04/04 01:35:48;;;;;;;2.72;1.50;;;11.10;57.50;;;;;;5104073;27;20529;-88
2021/04/04 01:38:17;;;;;;;4.45;2.17;;;11.00;57.50;;;;;;5110452;28;20031;-88
2021/04/04 01:40:49;;;;;;;3.63;1.95;;;11.00;57.50;;;;;;5115698;28;20028;-86
2021/04/04 01:43:16;;;;;;;3.35;1.40;;;11.00;57.50;;;;;;5104121;28;20024;-88
2021/04/04 01:45:43;;;;;;;2.72;1.35;;;11.00;57.50;;;;;;5099995;28;20028;-89
2021/04/04 01:48:12;;;;;;;2.88;1.50;;;11.00;57.50;;;;;;5096829;27;20032;-88
2021/04/04 01:50:39;;;;;;;2.13;1.50;;;11.00;57.60;;;;;;5114380;28;20103;-88
2021/04/04 01:53:06;;;;;;;2.30;1.30;;;11.00;57.60;;;;;;5115004;27;20020;-88
2021/04/04 01:55:32;;;;;;;3.28;1.67;;;11.00;58.20;;;;;;5102404;27;20033;-87
2021/04/04 01:58:00;;;;;;;4.95;1.70;;;11.00;57.60;;;;;;5115080;27;20027;-88
2021/04/04 02:00:27;;;;;;;5.15;2.08;;;11.00;57.70;;;;;;5094706;28;20032;-88
2021/04/04 02:02:54;;;;;;;3.63;1.67;;;10.90;57.70;;;;;;5095864;28;20468;-88
2021/04/04 02:05:22;;;;;;;2.50;1.40;;;10.90;57.70;;;;;;5115898;28;20027;-87
2021/04/04 02:07:50;;;;;;;1.90;1.13;;;10.90;57.70;;;;;;5101561;28;20024;-88
2021/04/04 02:10:22;;;;;;;3.72;1.70;;;11.00;57.70;;;;;;5115066;28;20027;-88
2021/04/04 02:12:51;;;;;;;3.47;1.45;;;10.90;57.70;;;;;;5103696;27;20106;-88
2021/04/04 02:15:19;;;;;;;2.58;1.50;;;10.90;57.70;;;;;;5098397;28;20104;-88
2021/04/04 02:17:47;;;;;;;4.22;2.13;;;10.90;57.70;;;;;;5125769;27;20030;-88
2021/04/04 02:20:16;;;;;;;1.70;1.20;;;10.90;57.80;;;;;;5097362;28;20028;-88
2021/04/04 02:22:43;;;;;;;2.38;1.40;;;10.90;57.80;;;;;;5116737;27;20106;-89
2021/04/04 02:25:11;;;;;;;1.95;1.40;;;10.80;57.80;;;;;;5115876;27;20028;-88
2021/04/04 02:27:40;;;;;;;2.90;1.40;;;10.80;57.80;;;;;;5143988;27;20053;-88
2021/04/04 02:30:07;;;;;;;2.50;1.60;;;10.80;57.80;;;;;;5116034;27;20032;-88
2021/04/04 02:32:38;;;;;;;3.78;1.63;;;10.80;57.80;;;;;;5114363;28;20023;-88
2021/04/04 02:35:05;;;;;;;2.55;1.48;;;10.80;57.90;;;;;;5108920;28;20028;-88
2021/04/04 02:37:32;;;;;;;2.08;1.27;;;10.80;57.90;;;;;;5102458;28;20135;-88
2021/04/04 02:40:02;;;;;;;2.55;1.40;;;10.80;58.00;;;;;;5120436;27;20038;-88
2021/04/04 02:42:31;;;;;;;4.45;1.63;;;10.80;58.00;;;;;;5114288;27;20035;-88
2021/04/04 02:44:59;;;;;;;3.53;1.55;;;10.80;58.00;;;;;;5104676;28;20015;-88
2021/04/04 02:47:36;;;;;;;2.67;1.50;;;10.70;58.00;;;;;;5123613;27;20023;-88
2021/04/04 02:50:02;;;;;;;2.35;1.48;;;10.70;58.00;;;;;;5099167;28;20024;-88
2021/04/04 02:52:30;;;;;;;1.95;1.20;;;10.70;58.00;;;;;;5095087;28;20463;-86
2021/04/04 02:54:57;;;;;;;1.80;1.40;;;10.70;58.10;;;;;;5095319;28;20479;-88
2021/04/04 02:57:30;;;;;;;1.58;1.25;;;10.70;58.10;;;;;;5097252;28;20032;-89
2021/04/04 03:00:01;;;;;;;3.63;1.60;;;10.70;58.10;;;;;;5101435;28;20115;-88
2021/04/04 03:02:30;;;;;;;2.28;1.30;;;10.70;58.10;;;;;;5118673;27;20496;-88
2021/04/04 03:04:59;;;;;;;2.75;1.60;;;10.70;58.10;;;;;;5094809;27;20032;-88
2021/04/04 03:07:27;;;;;;;1.98;1.50;;;10.70;58.20;;;;;;5108028;28;20279;-88
2021/04/04 03:09:54;;;;;;;2.60;1.23;;;10.70;58.20;;;;;;5116048;27;20024;-88
2021/04/04 03:12:23;;;;;;;2.15;1.50;;;10.70;58.20;;;;;;5101169;27;20116;-88
2021/04/04 03:14:50;;;;;;;2.03;1.35;;;10.70;58.20;;;;;;5115017;27;20026;-88
2021/04/04 03:17:16;;;;;;;2.15;1.25;;;10.70;58.30;;;;;;5124846;27;20042;-87
2021/04/04 03:19:45;;;;;;;2.22;1.40;;;10.70;58.20;;;;;;5096516;28;20111;-88
2021/04/04 03:22:12;;;;;;;1.67;1.20;;;10.70;58.30;;;;;;5113626;28;20115;-88
2021/04/04 03:24:40;;;;;;;2.80;1.42;;;10.60;58.30;;;;;;5113795;28;20080;-88
2021/04/04 03:27:07;;;;;;;1.52;1.23;;;10.60;58.30;;;;;;5115451;27;20015;-89
2021/04/04 03:29:34;;;;;;;2.50;1.40;;;10.60;58.30;;;;;;5096760;28;20095;-88
2021/04/04 03:32:01;;;;;;;1.88;1.25;;;10.60;58.30;;;;;;5097858;28;20034;-88
2021/04/04 03:34:27;;;;;;;2.28;1.42;;;10.60;58.30;;;;;;5113026;28;20019;-88
2021/04/04 03:36:54;;;;;;;3.72;1.70;;;10.60;58.30;;;;;;5113777;28;20043;-88
2021/04/04 03:39:22;;;;;;;3.88;1.70;;;10.60;58.40;;;;;;5112798;28;20028;-88
2021/04/04 03:41:52;;;;;;;1.50;1.40;;;10.60;58.40;;;;;;5117780;27;20047;-88
2021/04/04 03:44:20;;;;;;;3.05;1.50;;;10.60;58.50;;;;;;5117975;27;20059;-87
2021/04/04 03:46:48;;;;;;;1.90;1.20;;;10.60;58.40;;;;;;5097237;28;20024;-88
2021/04/04 03:49:14;;;;;;;2.28;1.30;;;10.60;58.50;;;;;;5090066;28;20027;-88
2021/04/04 03:51:41;;;;;;;3.25;1.20;;;10.50;58.40;;;;;;5095211;28;20031;-89
2021/04/04 03:54:12;;;;;;;2.63;1.30;;;10.50;58.40;;;;;;5101341;28;20028;-87
2021/04/04 03:56:46;;;;;;;2.92;1.65;;;10.50;58.50;;;;;;5112908;28;20024;-88
2021/04/04 03:59:13;;;;;;;3.70;1.30;;;10.50;58.50;;;;;;5112941;28;20379;-88
2021/04/04 04:01:44;;;;;;;2.80;1.50;;;10.50;58.40;;;;;;5098124;28;20044;-88
2021/04/04 04:04:10;;;;;;;1.73;1.20;;;10.50;58.40;;;;;;5113280;28;20068;-87
2021/04/04 04:06:41;;;;;;;2.72;1.20;;;10.50;58.50;;;;;;5095449;28;20030;-88
2021/04/04 04:09:13;;;;;;;2.95;1.30;;;10.50;58.50;;;;;;5096038;28;20026;-88
2021/04/04 04:11:42;;;;;;;1.48;1.30;;;10.50;58.50;;;;;;5125224;28;20027;-87
2021/04/04 04:14:12;;;;;;;3.05;1.33;;;10.50;58.50;;;;;;5101724;28;20034;-88
2021/04/04 04:16:38;;;;;;;2.53;1.58;;;10.50;58.50;;;;;;5109882;28;20046;-88
2021/04/04 04:19:06;;;;;;;1.65;1.40;;;10.50;58.50;;;;;;5114618;28;20036;-88
2021/04/04 04:21:34;;;;;;;1.50;1.20;;;10.50;58.60;;;;;;5113713;28;20118;-89
2021/04/04 04:24:03;;;;;;;2.22;1.30;;;10.50;58.60;;;;;;5112574;28;20097;-88
2021/04/04 04:26:33;;;;;;;2.20;1.10;;;10.40;58.50;;;;;;5129863;28;20020;-88
2021/04/04 04:29:00;;;;;;;1.55;1.25;;;10.40;58.60;;;;;;5113099;28;20039;-87
2021/04/04 04:31:42;;;;;;;2.88;1.40;;;10.40;58.60;;;;;;5113618;28;20015;-88
2021/04/04 04:34:09;;;;;;;1.45;1.20;;;10.40;58.60;;;;;;5120214;28;20031;-87
2021/04/04 04:36:37;;;;;;;2.20;1.15;;;10.40;58.60;;;;;;5102983;28;20093;-87
2021/04/04 04:39:05;;;;;;;1.50;1.20;;;10.40;58.60;;;;;;5096139;28;20031;-87
2021/04/04 04:41:36;;;;;;;1.52;1.27;;;10.40;58.60;;;;;;5099531;28;20023;-87
2021/04/04 04:44:04;;;;;;;3.15;1.30;;;10.40;58.60;;;;;;5097805;28;20080;-87
2021/04/04 04:46:32;;;;;;;1.77;1.20;;;10.40;58.60;;;;;;5113940;28;20020;-87
2021/04/04 04:48:59;;;;;;;2.45;1.40;;;10.40;58.70;;;;;;5109721;28;20524;-88
2021/04/04 04:51:25;;;;;;;1.98;1.50;;;10.40;58.60;;;;;;5125078;27;20042;-88
2021/04/04 04:53:51;;;;;;;2.13;1.30;;;10.40;58.70;;;;;;5090860;28;20024;-87
2021/04/04 04:56:18;;;;;;;1.60;1.20;;;10.40;58.70;;;;;;5104195;28;20555;-87
2021/04/04 04:58:44;;;;;;;3.17;1.40;;;10.40;58.70;;;;;;5100071;27;20028;-87
2021/04/04 05:01:14;;;;;;;2.15;1.40;;;10.40;58.70;;;;;;5118094;28;20544;-87
2021/04/04 05:03:40;;;;;;;1.80;1.00;;;10.40;58.70;;;;;;5145901;27;20027;-87
2021/04/04 05:06:11;;;;;;;1.80;1.27;;;10.30;58.70;;;;;;5112164;28;20036;-87
2021/04/04 05:08:39;;;;;;;1.83;1.23;;;10.30;58.70;;;;;;5113620;28;20100;-87
2021/04/04 05:11:11;;;;;;;1.27;1.10;;;10.30;58.70;;;;;;5113874;28;20020;-86
2021/04/04 05:13:39;;;;;;;1.50;1.23;;;10.30;58.70;;;;;;5126644;28;20071;-87
2021/04/04 05:16:16;;;;;;;2.17;1.40;;;10.30;58.70;;;;;;5113649;28;20028;-86
2021/04/04 05:18:49;;;;;;;1.20;1.10;;;10.30;58.90;;;;;;5114671;27;20046;-87
2021/04/04 05:21:19;;;;;;;1.27;1.10;;;10.30;58.80;;;;;;5132818;27;20024;-87
2021/04/04 05:23:45;;;;;;;2.97;1.60;;;10.30;58.80;;;;;;5128521;27;20093;-87
2021/04/04 05:26:14;;;;;;;2.53;1.20;;;10.30;58.80;;;;;;5099000;28;20032;-87
2021/04/04 05:28:41;;;;;;;3.88;1.35;;;10.30;58.90;;;;;;5115770;28;20028;-87
2021/04/04 05:31:06;;;;;;;2.35;1.30;;;10.30;58.90;;;;;;5115913;27;20019;-87
2021/04/04 05:33:32;;;;;;;1.77;1.15;;;10.30;58.90;;;;;;5117865;27;20034;-86
2021/04/04 05:36:03;;;;;;;2.20;1.35;;;10.20;58.90;;;;;;5097510;28;20476;-87
2021/04/04 05:38:29;;;;;;;1.40;1.20;;;10.20;58.90;;;;;;5115378;28;20032;-85
2021/04/04 05:40:56;;;;;;;1.63;1.10;;;10.20;58.90;;;;;;5115056;28;20034;-86
2021/04/04 05:43:25;;;;;;;1.92;1.40;;;10.20;58.90;;;;;;5098339;28;20031;-84
2021/04/04 05:45:55;;;;;;;2.50;1.40;;;10.30;59.00;;;;;;5097988;28;20028;-85
2021/04/04 05:48:25;;;;;;;1.63;1.20;;;10.20;59.00;;;;;;5113590;27;20028;-84
2021/04/04 05:51:12;;;;;;;1.38;1.00;;;10.20;59.00;;;;;;5097388;28;20383;-84
2021/04/04 05:53:50;;;;;;;1.88;1.20;;;10.30;59.10;;;;;;5112060;28;20056;-86
2021/04/04 05:56:27;;;;;;;3.53;1.17;;;10.20;59.00;;;;;;5097356;28;20061;-85
2021/04/04 05:59:09;;;;;;;1.60;1.25;;;10.20;59.00;;;;;;5114885;28;20074;-84
2021/04/04 06:01:50;;;;;;;1.20;1.10;;;10.20;59.10;;;;;;5109329;28;20039;-83
2021/04/04 06:04:38;;;;;;;2.65;1.20;;;10.20;59.10;;;;;;5131123;27;20391;-83
2021/04/04 06:07:39;;;;;;;1.92;1.25;;;10.20;59.20;;;;;;5107256;28;20016;-84
2021/04/04 06:10:30;;;;;;;2.30;1.20;;;10.20;59.20;;;;;;5097272;28;20088;-83
2021/04/04 06:13:08;;;;;;;1.92;1.10;;;10.10;59.20;;;;;;5111141;28;20067;-83
2021/04/04 06:15:46;;;;;;;1.95;1.42;;;10.10;59.20;;;;;;5098338;28;20479;-83
2021/04/04 06:18:31;;;;;;;1.35;1.25;;;10.20;59.30;;;;;;5098220;28;20038;-84
2021/04/04 06:21:09;;;;;;;1.55;1.20;;;10.10;59.20;;;;;;5100250;27;20027;-84
2021/04/04 06:23:50;;;;;;;2.95;1.30;;;10.20;59.30;;;;;;5117603;27;20023;-83
2021/04/04 06:26:26;;;;;;;2.42;1.40;;;10.10;59.20;;;;;;5147687;27;20076;-84
2021/04/04 06:28:57;;;;;;;2.05;1.33;;;10.10;59.30;;;;;;5132960;27;20072;-83
2021/04/04 06:31:36;;;;;;;1.55;1.08;;;10.20;59.30;;;;;;5119095;27;20050;-84
2021/04/04 06:34:12;;;;;;;1.42;1.20;;;10.10;59.30;;;;;;5129926;27;20502;-83
2021/04/04 06:36:42;;;;;;;2.28;1.23;;;10.10;59.30;;;;;;5124692;27;20043;-84
2021/04/04 06:39:39;;;;;;;1.20;1.10;;;10.10;59.30;;;;;;5105850;28;20077;-84
2021/04/04 06:42:20;;;;;;;2.15;1.10;;;10.10;59.50;;;;;;5105491;28;20038;-85
2021/04/04 06:45:01;;;;;;;1.63;1.52;;;10.10;60.10;;;;;;5116519;27;20039;-86
2021/04/04 06:47:51;;;;;;;1.60;1.20;;;10.20;59.40;;;;;;5117357;27;20028;-86
2021/04/04 06:50:23;;;;;;;1.65;1.30;;;10.10;59.40;;;;;;5097952;28;20115;-85
2021/04/04 06:53:16;;;;;;;2.35;1.40;;;10.10;59.40;;;;;;5113429;28;20019;-86
2021/04/04 06:55:59;;;;;;;1.77;1.20;;;10.10;59.50;;;;;;5113791;27;20034;-86
2021/04/04 06:58:37;;;;;;;1.88;1.10;;;10.20;59.60;;;;;;5116424;27;20030;-87
2021/04/04 07:01:27;;;;;;;3.15;1.30;;;10.20;59.50;;;;;;5111454;28;20177;-86
2021/04/04 07:04:01;;;;;;;1.77;1.40;;;10.10;59.50;;;;;;5121456;27;20107;-86
2021/04/04 07:06:27;;;;;;;1.75;1.20;;;10.10;59.50;;;;;;5145428;27;20061;-87
2021/04/04 07:09:34;;;;;;;1.65;1.40;;;10.10;59.50;;;;;;5127574;27;20460;-84
2021/04/04 07:12:48;;;;;;;1.20;1.10;;;10.10;59.70;;;;;;5131425;27;20087;-87
2021/04/04 07:15:28;;;;;;;1.63;1.02;;;10.10;59.70;;;;;;5090797;28;20042;-86
2021/04/04 07:18:52;;;;;;;1.67;1.10;;;10.20;59.60;;;;;;5110164;27;20035;-86
2021/04/04 07:21:42;;;;;;;1.20;1.10;;;10.10;59.70;;;;;;5111104;27;20510;-87
2021/04/04 07:24:42;;;;;;;2.72;1.10;;;10.20;59.70;;;;;;5111020;28;20148;-86
2021/04/04 07:27:15;;;;;;;3.70;1.52;;;10.20;59.80;;;;;;5114923;27;20072;-86
2021/04/04 07:29:50;;;;;;;1.77;1.25;;;10.20;59.70;;;;;;5114188;27;20027;-87
2021/04/04 07:32:25;;;;;;;1.52;1.13;;;10.20;59.80;;;;;;5112987;28;20024;-82
2021/04/04 07:34:56;;;;;;;;;;;10.20;59.80;;;;;;5116368;27;20076;-82
2021/04/04 07:38:01;;;;;;;1.88;1.10;;;10.20;59.70;;;;;;5112098;28;19907;-79
2021/04/04 07:40:43;;;;;;;1.40;1.10;;;10.20;59.70;;;;;;5101145;28;20039;-88
2021/04/04 07:43:15;;;;;;;1.88;1.20;;;10.20;59.80;;;;;;5129890;27;20036;-82
2021/04/04 07:45:53;;;;;;;1.30;1.20;;;10.20;59.80;;;;;;5119065;27;20037;-82
2021/04/04 07:48:33;;;;;;;2.45;1.25;;;10.20;59.90;;;;;;5114799;27;20028;-85
2021/04/04 07:51:06;;;;;;;1.55;1.08;;;10.20;59.90;;;;;;5117514;27;20027;-86
2021/04/04 07:53:50;;;;;;;3.58;1.40;;;10.20;59.90;;;;;;5120537;27;20353;-85
2021/04/04 07:56:22;;;;;;;1.77;1.30;;;10.20;59.90;;;;;;5109989;28;20044;-79
2021/04/04 07:59:13;;;;;;;2.08;1.40;;;10.30;60.00;;;;;;5113540;27;20131;-84
2021/04/04 08:01:51;;;;;;;0.95;0.95;;;10.30;60.10;;;;;;5077616;28;20086;-83
2021/04/04 08:04:27;;;;;;;1.58;1.10;;;10.30;60.10;;;;;;5113933;27;20032;-83
2021/04/04 08:06:59;;;;;;;1.58;1.30;;;10.30;60.10;;;;;;5127169;27;20517;-82
2021/04/04 08:09:52;;;;;;;1.70;1.10;;;10.30;60.10;;;;;;5112116;28;20023;-86
2021/04/04 08:12:36;;;;;;;1.63;1.10;;;10.40;60.20;;;;;;5105973;28;20068;-83
2021/04/04 08:15:06;;;;;;;2.90;1.52;;;10.40;60.10;;;;;;5128089;27;20036;-87
2021/04/04 08:17:35;;;;;;;1.83;1.40;;;10.40;60.10;;;;;;5112355;28;20030;-87
2021/04/04 08:20:23;;;;;;;2.22;1.30;;;10.40;60.10;;;;;;5109401;28;20035;-89
2021/04/04 08:22:59;;;;;;;1.20;1.10;;;10.40;60.10;;;;;;5112602;28;20077;-88
2021/04/04 08:25:37;;;;;;;2.47;1.50;;;10.40;60.10;;;;;;5112825;28;20027;-91
2021/04/04 08:28:11;;;;;;;1.90;1.33;;;10.50;60.20;;;;;;5103504;28;20024;-86
2021/04/04 08:30:49;;;;;;;2.28;1.40;;;10.50;60.10;;;;;;5112857;28;20035;-90
2021/04/04 08:33:34;;;;;;;1.75;1.20;;;10.50;60.20;;;;;;5106759;28;20039;-91
2021/04/04 08:36:03;;;;;;;2.43;1.53;;;10.50;60.20;;;;;;5112838;28;20034;-88
2021/04/04 08:38:35;;;;;;;1.27;1.17;;;10.50;60.10;;;;;;5112231;28;20342;-88
2021/04/04 08:41:03;;;;;;;1.38;1.27;;;10.50;60.20;;;;;;5112750;28;20036;-88
2021/04/04 08:43:30;;;;;;;1.85;1.20;;;10.50;60.20;;;;;;5112922;28;20008;-89
2021/04/04 08:46:08;;;;;;;1.05;1.02;;;10.50;60.20;;;;;;5095484;28;20028;-87
2021/04/04 08:48:34;;;;;;;1.80;1.20;;;10.60;60.30;;;;;;5104027;28;20107;-87
2021/04/04 08:51:09;;;;;;;1.35;1.23;;;10.60;60.20;;;;;;5096307;28;20035;-91
2021/04/04 08:53:39;;;;;;;;;;;10.60;60.30;;;;;;5096108;28;20027;-89
2021/04/04 08:56:05;;;;;;;1.33;1.17;;;10.60;60.20;;;;;;5130665;27;19915;-89
2021/04/04 08:58:40;;;;;;;2.00;1.20;;;10.60;60.10;;;;;;5117667;27;20156;-89
2021/04/04 09:01:27;;;;;;;2.10;1.33;;;10.60;60.30;;;;;;5100058;28;20039;-87
2021/04/04 09:03:57;;;;;;;3.00;1.13;;;10.60;60.30;;;;;;5116847;27;20031;-87
2021/04/04 09:06:23;;;;;;;1.65;1.52;;;10.60;60.30;;;;;;5116335;27;20031;-83
2021/04/04 09:08:50;;;;;;;3.88;1.80;;;10.70;60.40;;;;;;5115646;28;20034;-87
2021/04/04 09:11:17;;;;;;;2.13;1.50;;;10.70;60.40;;;;;;5090746;28;20032;-84
2021/04/04 09:13:44;;;;;;;1.58;1.30;;;10.70;60.40;;;;;;5127222;27;20033;-86
2021/04/04 09:16:12;;;;;;;2.47;1.70;;;10.60;60.40;;;;;;5115866;27;20024;-86
2021/04/04 09:18:46;;;;;;;1.83;1.30;;;10.70;60.40;;;;;;5116043;28;20034;-84
2021/04/04 09:21:12;;;;;;;2.00;1.43;;;10.70;60.40;;;;;;5112289;27;20464;-87
2021/04/04 09:23:38;;;;;;;2.80;1.58;;;10.70;60.40;;;;;;5099312;28;20027;-87
2021/04/04 09:26:07;;;;;;;1.65;1.40;;;10.70;60.30;;;;;;5115541;27;20031;-87
2021/04/04 09:28:36;;;;;;;1.42;1.33;;;10.70;60.40;;;;;;5099697;28;20468;-87
2021/04/04 09:31:04;;;;;;;1.83;1.60;;;10.70;60.40;;;;;;5116022;27;20138;-88
2021/04/04 09:33:37;;;;;;;2.72;1.60;;;10.80;60.40;;;;;;5115111;28;20521;-90
2021/04/04 09:36:06;;;;;;;1.98;1.42;;;10.70;60.40;;;;;;5118755;27;20454;-83
2021/04/04 09:38:37;;;;;;;2.25;1.58;;;10.80;60.40;;;;;;5114568;28;20055;-87
2021/04/04 09:41:05;;;;;;;2.50;1.77;;;10.70;60.40;;;;;;5130090;27;20114;-84
2021/04/04 09:43:56;;;;;;;1.92;1.45;;;10.80;60.40;;;;;;5131135;27;20032;-88
2021/04/04 09:46:22;;;;;;;2.40;1.65;;;10.80;60.40;;;;;;5131248;27;20020;-84
2021/04/04 09:48:48;;;;;;;2.25;1.65;;;10.80;60.30;;;;;;5088984;28;20054;-86
2021/04/04 09:51:16;;;;;;;2.78;1.55;;;10.80;60.30;;;;;;5105733;28;20043;-83
2021/04/04 09:53:43;;;;;;;1.63;1.45;;;10.80;60.40;;;;;;5093043;28;20031;-89
2021/04/04 09:56:27;;;;;;;2.20;1.60;;;10.80;60.40;;;;;;5106298;27;20476;-87
2021/04/04 09:58:53;;;;;;;1.90;1.55;;;10.90;60.50;;;;;;5099132;28;20046;-87
2021/04/04 10:01:23;;;;;;;1.77;1.50;;;10.90;60.40;;;;;;5096834;28;20471;-86
2021/04/04 10:04:06;;;;;;;2.38;1.42;;;10.90;60.40;;;;;;5131462;27;20039;-84
2021/04/04 10:06:37;;;;;;;1.83;1.50;;;10.90;60.50;;;;;;5104263;27;20063;-83
2021/04/04 10:09:08;;;;;;;2.40;1.63;;;10.90;60.40;;;;;;5113276;27;20059;-84
2021/04/04 10:11:35;;;;;;;2.30;1.52;;;10.90;60.40;;;;;;5114359;27;20019;-83
2021/04/04 10:14:19;;;;;;;2.63;1.63;;;10.90;60.40;;;;;;5127709;27;20020;-83
2021/04/04 10:16:45;;;;;;;2.58;1.85;;;10.90;60.40;;;;;;5113548;28;20123;-84
2021/04/04 10:19:12;;;;;;;2.30;1.60;;;11.00;60.40;;;;;;5114399;28;20452;-84
2021/04/04 10:21:55;;;;;;;2.05;1.60;;;11.00;60.40;;;;;;5114662;28;20035;-85
2021/04/04 10:24:29;;;;;;;3.03;1.50;;;11.00;60.50;;;;;;5113793;28;20460;-85
2021/04/04 10:27:34;;;;;;;1.52;1.42;;;11.00;60.40;;;;;;5116529;27;20023;-84
2021/04/04 10:30:12;;;;;;;1.95;1.60;;;11.10;60.50;;;;;;5055957;28;20413;-84
2021/04/04 10:32:42;;;;;;;1.83;1.50;;;11.00;60.30;;;;;;5055955;28;20414;-86
2021/04/04 10:35:10;;;;;;;2.28;1.50;;;11.10;60.40;;;;;;5065946;28;20046;-86
2021/04/04 10:37:36;;;;;;;1.58;1.48;;;11.10;60.40;;;;;;5096799;28;20424;-85
2021/04/04 10:40:06;;;;;;;2.40;1.60;;;11.10;60.40;;;;;;5113364;28;20036;-83
2021/04/04 10:42:32;;;;;;;1.77;1.60;;;11.10;60.40;;;;;;5114498;28;20115;-87
2021/04/04 10:45:14;;;;;;;1.65;1.33;;;11.20;60.40;;;;;;5096707;28;20448;-87
2021/04/04 10:47:42;;;;;;;1.50;1.40;;;11.20;60.50;;;;;;5113839;28;20022;-87
2021/04/04 10:50:12;;;;;;;1.40;1.30;;;11.20;60.30;;;;;;5114811;28;20040;-87
2021/04/04 10:52:40;;;;;;;1.88;1.30;;;11.20;60.30;;;;;;5114896;28;20026;-87
2021/04/04 10:55:06;;;;;;;2.10;1.40;;;11.30;60.40;;;;;;5100993;28;20103;-87
2021/04/04 10:57:34;;;;;;;1.90;1.50;;;11.20;60.20;;;;;;5092841;28;20031;-87
2021/04/04 11:00:02;;;;;;;1.73;1.50;;;11.30;60.30;;;;;;5114116;28;20038;-87
2021/04/04 11:02:28;;;;;;;1.60;1.33;;;11.30;60.20;;;;;;5080264;28;20126;-88
2021/04/04 11:04:57;;;;;;;2.22;1.40;;;11.30;60.20;;;;;;5114377;28;20062;-88
2021/04/04 11:07:23;;;;;;;2.00;1.40;;;11.40;60.20;;;;;;5114329;28;20430;-86
2021/04/04 11:09:49;;;;;;;2.40;1.80;;;11.40;60.20;;;;;;5087420;28;20036;-87
2021/04/04 11:12:16;;;;;;;1.95;1.30;;;11.40;60.10;;;;;;5110868;28;20038;-86
2021/04/04 11:14:45;;;;;;;1.90;1.52;;;11.40;60.10;;;;;;5113371;28;20452;-86
2021/04/04 11:17:14;;;;;;;2.03;1.50;;;11.50;60.10;;;;;;5112517;28;20047;-86
2021/04/04 11:19:45;;;;;;;1.60;1.30;;;11.50;60.00;;;;;;5113307;28;20425;-87
2021/04/04 11:22:16;;;;;;;2.22;1.33;;;11.50;60.00;;;;;;5115206;28;20034;-86
2021/04/04 11:25:07;;;;;;;2.30;1.48;;;11.60;60.00;;;;;;5113950;28;20380;-87
2021/04/04 11:27:41;;;;;;;1.60;1.42;;;11.60;60.00;;;;;;5113746;28;20059;-86
2021/04/04 11:30:13;;;;;;;2.20;1.80;;;11.60;59.90;;;;;;5113797;28;20039;-87
2021/04/04 11:32:41;;;;;;;1.73;1.30;;;11.60;59.80;;;;;;5108185;28;20099;-87
2021/04/04 11:35:09;;;;;;;1.40;1.30;;;11.70;59.90;;;;;;5088198;28;20076;-86
2021/04/04 11:37:37;;;;;;;1.60;1.40;;;11.70;59.80;;;;;;5113713;28;20056;-86
2021/04/04 11:40:25;;;;;;;2.08;1.40;;;11.70;59.80;;;;;;5113549;28;20032;-87
2021/04/04 11:43:12;;;;;;;1.60;1.35;;;11.70;59.80;;;;;;5112465;28;20065;-87
2021/04/04 11:45:39;;;;;;;2.00;1.48;;;11.80;59.80;;;;;;5112942;28;20049;-83
2021/04/04 11:48:27;;;;;;;2.70;1.52;;;11.80;59.70;;;;;;5094060;28;20020;-86
2021/04/04 11:50:53;;;;;;;2.03;1.52;;;11.80;59.80;;;;;;5112390;28;20073;-83
2021/04/04 11:53:41;;;;;;;1.60;1.40;;;11.80;59.70;;;;;;5095431;28;20027;-83
2021/04/04 11:56:08;;;;;;;1.90;1.50;;;11.90;59.80;;;;;;5107224;28;20051;-86
2021/04/04 11:58:35;;;;;;;1.58;1.25;;;11.90;59.60;;;;;;5113779;28;20115;-87
2021/04/04 12:01:00;;;;;;;2.25;1.52;;;11.90;59.70;;;;;;5103877;28;20519;-88
2021/04/04 12:03:27;;;;;;;2.15;1.52;;;11.90;59.60;;;;;;5094701;28;20134;-81
2021/04/04 12:05:53;;;;;;;1.70;1.50;;;11.90;59.60;;;;;;5111950;28;20034;-87
2021/04/04 12:08:29;;;;;;;3.08;1.70;;;12.00;59.60;;;;;;5096311;28;20028;-87
2021/04/04 12:10:56;;;;;;;3.50;1.88;;;12.00;59.60;;;;;;5092883;28;20066;-88
2021/04/04 12:13:22;;;;;;;1.67;1.50;;;12.00;59.50;;;;;;5095574;28;20023;-86
2021/04/04 12:15:48;;;;;;;2.85;1.70;;;12.10;59.60;;;;;;5112565;28;20028;-86
2021/04/04 12:18:14;;;;;;;2.72;1.58;;;12.10;59.50;;;;;;5113132;28;20023;-85
2021/04/04 12:20:40;;;;;;;3.17;1.70;;;12.10;59.50;;;;;;5095202;28;20035;-86
2021/04/04 12:23:13;;;;;;;4.05;2.08;;;12.20;59.50;;;;;;5111834;28;20020;-86
2021/04/04 12:25:41;;;;;;;2.17;1.40;;;12.20;59.50;;;;;;5112349;28;20087;-85
2021/04/04 12:28:07;;;;;;;2.70;1.80;;;12.20;59.40;;;;;;5114878;28;20016;-85
2021/04/04 12:30:36;;;;;;;3.13;1.77;;;12.20;59.40;;;;;;5099838;28;20039;-86
2021/04/04 12:33:03;;;;;;;3.25;2.13;;;12.30;59.40;;;;;;5116877;28;20027;-82
2021/04/04 12:35:29;;;;;;;3.08;1.60;;;12.30;59.30;;;;;;5098644;28;20027;-83
2021/04/04 12:37:55;;;;;;;2.90;1.80;;;12.40;59.40;;;;;;5117002;28;20028;-83
2021/04/04 12:40:22;;;;;;;3.00;1.65;;;12.40;59.40;;;;;;5116525;28;20036;-86
2021/04/04 12:42:57;;;;;;;1.98;1.67;;;12.40;59.30;;;;;;5103569;28;20024;-86
2021/04/04 12:45:24;;;;;;;2.88;1.70;;;12.40;59.30;;;;;;5097076;28;20051;-85
2021/04/04 12:47:50;;;;;;;2.70;1.90;;;12.50;59.30;;;;;;5116868;28;20050;-85
2021/04/04 12:50:18;;;;;;;3.85;1.75;;;12.50;59.20;;;;;;5116655;28;20035;-91
2021/04/04 12:52:49;;;;;;;3.30;1.80;;;12.50;59.20;;;;;;5119555;28;20026;-85
2021/04/04 12:55:29;;;;;;;2.28;1.58;;;12.60;59.20;;;;;;5115925;28;20020;-88
2021/04/04 12:58:05;;;;;;;3.70;2.05;;;12.60;59.20;;;;;;5116774;28;20032;-85
2021/04/04 13:00:38;;;;;;;3.30;1.98;;;12.60;59.10;;;;;;5115063;28;20038;-87
2021/04/04 13:03:09;;;;;;;2.47;1.63;;;12.60;59.00;;;;;;5111944;27;20040;-87
2021/04/04 13:05:36;;;;;;;3.00;2.20;;;12.70;59.10;;;;;;5099340;28;20035;-84
2021/04/04 13:08:23;;;;;;;2.70;1.77;;;12.70;59.00;;;;;;5114469;28;20030;-87
2021/04/04 13:10:52;;;;;;;3.35;1.90;;;12.80;59.00;;;;;;5115282;28;20528;-83
2021/04/04 13:13:26;;;;;;;3.65;1.90;;;12.80;58.90;;;;;;5115225;28;20012;-82